sensor_id;sensor_type;location;lat;lon;timestamp;P1;durP1;ratioP1;P2;durP2;ratioP2
38089;SDS011;23904;52.322;10.232;2023-07-29T00:00:41;8.25;;;5.80;;
38089;SDS011;23904;52.322;10.232;2023-07-29T00:03:08;8.73;;;7.40;;
38089;SDS011;23904;52.322;10.232;2023-07-29T00:05:35;8.45;;;6.75;;
38089;SDS011;23904;52.322;10.232;2023-07-29T00:08:02;8.85;;;5.97;;
38089;SDS011;23904;52.322;10.232;2023-07-29T00:10:28;7.43;;;5.40;;
38089;SDS011;23904;52.322;10.232;2023-07-29T00:12:53;9.57;;;7.35;;
38089;SDS011;23904;52.322;10.232;2023-07-29T00:15:19;10.13;;;6.60;;
38089;SDS011;23904;52.322;10.232;2023-07-29T00:17:45;9.40;;;6.03;;
38089;SDS011;23904;52.322;10.232;2023-07-29T00:20:10;8.38;;;6.35;;
38089;SDS011;23904;52.322;10.232;2023-07-29T00:22:36;8.00;;;6.88;;
38089;SDS011;23904;52.322;10.232;2023-07-29T00:25:01;8.13;;;7.00;;
38089;SDS011;23904;52.322;10.232;2023-07-29T00:27:27;9.00;;;6.15;;
38089;SDS011;23904;52.322;10.232;2023-07-29T00:29:53;8.93;;;6.00;;
38089;SDS011;23904;52.322;10.232;2023-07-29T00:32:18;6.70;;;5.68;;
38089;SDS011;23904;52.322;10.232;2023-07-29T00:34:44;6.90;;;5.70;;
38089;SDS011;23904;52.322;10.232;2023-07-29T00:37:09;5.78;;;4.60;;
38089;SDS011;23904;52.322;10.232;2023-07-29T00:39:35;6.70;;;5.13;;
38089;SDS011;23904;52.322;10.232;2023-07-29T00:42:04;7.00;;;4.53;;
38089;SDS011;23904;52.322;10.232;2023-07-29T00:44:30;6.07;;;4.78;;
38089;SDS011;23904;52.322;10.232;2023-07-29T00:46:58;5.30;;;4.70;;
38089;SDS011;23904;52.322;10.232;2023-07-29T00:49:27;5.80;;;4.70;;
38089;SDS011;23904;52.322;10.232;2023-07-29T00:51:53;6.25;;;4.70;;
38089;SDS011;23904;52.322;10.232;2023-07-29T00:54:19;4.82;;;4.28;;
38089;SDS011;23904;52.322;10.232;2023-07-29T00:56:45;5.45;;;4.28;;
38089;SDS011;23904;52.322;10.232;2023-07-29T00:59:10;5.15;;;4.40;;
38089;SDS011;23904;52.322;10.232;2023-07-29T01:01:36;5.03;;;3.70;;
38089;SDS011;23904;52.322;10.232;2023-07-29T01:04:02;5.95;;;4.32;;
38089;SDS011;23904;52.322;10.232;2023-07-29T01:06:38;4.72;;;3.90;;
38089;SDS011;23904;52.322;10.232;2023-07-29T01:09:33;4.68;;;3.40;;
38089;SDS011;23904;52.322;10.232;2023-07-29T01:12:20;4.10;;;3.58;;
38089;SDS011;23904;52.322;10.232;2023-07-29T01:15:01;5.07;;;3.53;;
38089;SDS011;23904;52.322;10.232;2023-07-29T01:17:46;4.38;;;3.75;;
38089;SDS011;23904;52.322;10.232;2023-07-29T01:20:29;4.47;;;3.17;;
38089;SDS011;23904;52.322;10.232;2023-07-29T01:23:02;3.47;;;2.70;;
38089;SDS011;23904;52.322;10.232;2023-07-29T01:25:27;5.40;;;3.22;;
38089;SDS011;23904;52.322;10.232;2023-07-29T01:27:53;6.20;;;3.10;;
38089;SDS011;23904;52.322;10.232;2023-07-29T01:30:20;4.97;;;3.15;;
38089;SDS011;23904;52.322;10.232;2023-07-29T01:37:52;2.85;;;2.40;;
38089;SDS011;23904;52.322;10.232;2023-07-29T01:40:33;2.72;;;2.20;;
38089;SDS011;23904;52.322;10.232;2023-07-29T01:42:59;4.65;;;2.75;;
38089;SDS011;23904;52.322;10.232;2023-07-29T01:45:25;2.75;;;2.17;;
38089;SDS011;23904;52.322;10.232;2023-07-29T01:47:51;2.83;;;1.90;;
38089;SDS011;23904;52.322;10.232;2023-07-29T01:50:17;4.28;;;1.88;;
38089;SDS011;23904;52.322;10.232;2023-07-29T01:52:42;2.78;;;2.20;;
38089;SDS011;23904;52.322;10.232;2023-07-29T01:55:08;3.17;;;2.22;;
38089;SDS011;23904;52.322;10.232;2023-07-29T01:57:34;3.65;;;1.58;;
38089;SDS011;23904;52.322;10.232;2023-07-29T01:59:59;3.67;;;2.03;;
38089;SDS011;23904;52.322;10.232;2023-07-29T02:02:25;4.03;;;1.92;;
38089;SDS011;23904;52.322;10.232;2023-07-29T02:04:50;3.22;;;2.35;;
38089;SDS011;23904;52.322;10.232;2023-07-29T02:07:17;3.08;;;2.20;;
38089;SDS011;23904;52.322;10.232;2023-07-29T02:09:45;4.07;;;2.20;;
38089;SDS011;23904;52.322;10.232;2023-07-29T02:12:10;2.35;;;1.90;;
38089;SDS011;23904;52.322;10.232;2023-07-29T02:14:36;3.42;;;2.17;;
38089;SDS011;23904;52.322;10.232;2023-07-29T02:17:02;2.88;;;2.03;;
38089;SDS011;23904;52.322;10.232;2023-07-29T02:19:27;2.47;;;1.75;;
38089;SDS011;23904;52.322;10.232;2023-07-29T02:21:53;3.35;;;1.95;;
38089;SDS011;23904;52.322;10.232;2023-07-29T02:24:18;4.00;;;2.13;;
38089;SDS011;23904;52.322;10.232;2023-07-29T02:26:44;3.20;;;1.75;;
38089;SDS011;23904;52.322;10.232;2023-07-29T02:29:10;2.78;;;2.15;;
38089;SDS011;23904;52.322;10.232;2023-07-29T02:31:35;3.03;;;2.10;;
38089;SDS011;23904;52.322;10.232;2023-07-29T02:34:02;2.33;;;1.73;;
38089;SDS011;23904;52.322;10.232;2023-07-29T02:36:28;2.80;;;1.98;;
38089;SDS011;23904;52.322;10.232;2023-07-29T02:38:54;2.17;;;1.83;;
38089;SDS011;23904;52.322;10.232;2023-07-29T02:41:19;2.55;;;1.77;;
38089;SDS011;23904;52.322;10.232;2023-07-29T02:43:49;2.65;;;1.73;;
38089;SDS011;23904;52.322;10.232;2023-07-29T02:46:15;2.85;;;2.20;;
38089;SDS011;23904;52.322;10.232;2023-07-29T02:48:41;2.67;;;1.98;;
38089;SDS011;23904;52.322;10.232;2023-07-29T02:51:08;3.10;;;1.95;;
38089;SDS011;23904;52.322;10.232;2023-07-29T02:53:34;3.22;;;1.83;;
38089;SDS011;23904;52.322;10.232;2023-07-29T02:56:01;4.72;;;2.00;;
38089;SDS011;23904;52.322;10.232;2023-07-29T02:58:28;3.42;;;1.95;;
38089;SDS011;23904;52.322;10.232;2023-07-29T03:00:59;2.10;;;1.70;;
38089;SDS011;23904;52.322;10.232;2023-07-29T03:03:30;3.17;;;2.13;;
38089;SDS011;23904;52.322;10.232;2023-07-29T03:05:59;2.03;;;1.67;;
38089;SDS011;23904;52.322;10.232;2023-07-29T03:08:27;2.53;;;1.98;;
38089;SDS011;23904;52.322;10.232;2023-07-29T03:10:53;2.38;;;1.80;;
38089;SDS011;23904;52.322;10.232;2023-07-29T03:13:20;4.55;;;1.95;;
38089;SDS011;23904;52.322;10.232;2023-07-29T03:15:45;2.28;;;1.90;;
38089;SDS011;23904;52.322;10.232;2023-07-29T03:18:11;5.68;;;2.10;;
38089;SDS011;23904;52.322;10.232;2023-07-29T03:20:36;3.75;;;2.00;;
38089;SDS011;23904;52.322;10.232;2023-07-29T03:23:02;2.45;;;1.98;;
38089;SDS011;23904;52.322;10.232;2023-07-29T03:25:28;8.65;;;2.03;;
38089;SDS011;23904;52.322;10.232;2023-07-29T03:27:53;4.40;;;2.10;;
38089;SDS011;23904;52.322;10.232;2023-07-29T03:30:20;2.30;;;1.98;;
38089;SDS011;23904;52.322;10.232;2023-07-29T03:32:47;2.38;;;1.90;;
38089;SDS011;23904;52.322;10.232;2023-07-29T03:35:13;2.80;;;2.22;;
38089;SDS011;23904;52.322;10.232;2023-07-29T03:37:39;3.53;;;2.13;;
38089;SDS011;23904;52.322;10.232;2023-07-29T03:40:06;2.75;;;2.20;;
38089;SDS011;23904;52.322;10.232;2023-07-29T03:42:32;2.22;;;1.65;;
38089;SDS011;23904;52.322;10.232;2023-07-29T03:44:58;2.65;;;1.73;;
38089;SDS011;23904;52.322;10.232;2023-07-29T03:47:23;4.35;;;1.95;;
38089;SDS011;23904;52.322;10.232;2023-07-29T03:49:49;2.70;;;1.90;;
38089;SDS011;23904;52.322;10.232;2023-07-29T03:52:15;4.35;;;2.17;;
38089;SDS011;23904;52.322;10.232;2023-07-29T03:54:40;2.85;;;2.08;;
38089;SDS011;23904;52.322;10.232;2023-07-29T03:57:06;3.45;;;2.05;;
38089;SDS011;23904;52.322;10.232;2023-07-29T03:59:32;2.35;;;1.90;;
38089;SDS011;23904;52.322;10.232;2023-07-29T04:01:58;2.97;;;2.25;;
38089;SDS011;23904;52.322;10.232;2023-07-29T04:04:23;4.85;;;2.42;;
38089;SDS011;23904;52.322;10.232;2023-07-29T04:06:49;3.33;;;2.30;;
38089;SDS011;23904;52.322;10.232;2023-07-29T04:09:14;3.20;;;2.13;;
38089;SDS011;23904;52.322;10.232;2023-07-29T04:11:40;3.22;;;2.53;;
38089;SDS011;23904;52.322;10.232;2023-07-29T04:14:06;3.90;;;2.40;;
38089;SDS011;23904;52.322;10.232;2023-07-29T04:16:31;2.75;;;2.15;;
38089;SDS011;23904;52.322;10.232;2023-07-29T04:18:57;2.95;;;2.00;;
38089;SDS011;23904;52.322;10.232;2023-07-29T04:21:22;3.53;;;2.53;;
38089;SDS011;23904;52.322;10.232;2023-07-29T04:23:48;3.08;;;2.50;;
38089;SDS011;23904;52.322;10.232;2023-07-29T04:26:13;4.43;;;2.35;;
38089;SDS011;23904;52.322;10.232;2023-07-29T04:28:39;6.72;;;2.50;;
38089;SDS011;23904;52.322;10.232;2023-07-29T04:31:04;2.90;;;2.25;;
38089;SDS011;23904;52.322;10.232;2023-07-29T04:33:30;4.43;;;1.95;;
38089;SDS011;23904;52.322;10.232;2023-07-29T04:35:56;2.78;;;2.13;;
38089;SDS011;23904;52.322;10.232;2023-07-29T04:38:22;4.82;;;2.22;;
38089;SDS011;23904;52.322;10.232;2023-07-29T04:40:55;2.38;;;1.83;;
38089;SDS011;23904;52.322;10.232;2023-07-29T04:43:20;3.22;;;2.25;;
38089;SDS011;23904;52.322;10.232;2023-07-29T04:45:46;2.60;;;1.98;;
38089;SDS011;23904;52.322;10.232;2023-07-29T04:48:11;4.90;;;2.22;;
38089;SDS011;23904;52.322;10.232;2023-07-29T04:50:37;4.07;;;2.75;;
38089;SDS011;23904;52.322;10.232;2023-07-29T04:53:02;3.60;;;2.10;;
38089;SDS011;23904;52.322;10.232;2023-07-29T04:55:28;2.55;;;1.98;;
38089;SDS011;23904;52.322;10.232;2023-07-29T04:57:54;2.70;;;2.03;;
38089;SDS011;23904;52.322;10.232;2023-07-29T05:00:19;4.22;;;2.08;;
38089;SDS011;23904;52.322;10.232;2023-07-29T05:02:45;2.28;;;1.80;;
38089;SDS011;23904;52.322;10.232;2023-07-29T05:05:11;2.90;;;2.20;;
38089;SDS011;23904;52.322;10.232;2023-07-29T05:07:36;3.13;;;2.28;;
38089;SDS011;23904;52.322;10.232;2023-07-29T05:10:02;5.53;;;2.03;;
38089;SDS011;23904;52.322;10.232;2023-07-29T05:12:28;4.22;;;2.17;;
38089;SDS011;23904;52.322;10.232;2023-07-29T05:14:54;2.63;;;1.92;;
38089;SDS011;23904;52.322;10.232;2023-07-29T05:17:19;3.60;;;2.40;;
38089;SDS011;23904;52.322;10.232;2023-07-29T05:19:46;3.50;;;2.45;;
38089;SDS011;23904;52.322;10.232;2023-07-29T05:22:12;3.95;;;2.20;;
38089;SDS011;23904;52.322;10.232;2023-07-29T05:24:37;2.47;;;2.00;;
38089;SDS011;23904;52.322;10.232;2023-07-29T05:27:03;5.47;;;2.30;;
38089;SDS011;23904;52.322;10.232;2023-07-29T05:29:28;3.53;;;2.00;;
38089;SDS011;23904;52.322;10.232;2023-07-29T05:31:54;2.97;;;2.30;;
38089;SDS011;23904;52.322;10.232;2023-07-29T05:34:20;5.03;;;2.50;;
38089;SDS011;23904;52.322;10.232;2023-07-29T05:36:45;3.95;;;2.42;;
38089;SDS011;23904;52.322;10.232;2023-07-29T05:39:11;3.47;;;2.05;;
38089;SDS011;23904;52.322;10.232;2023-07-29T05:41:37;5.65;;;2.40;;
38089;SDS011;23904;52.322;10.232;2023-07-29T05:44:02;2.63;;;2.05;;
38089;SDS011;23904;52.322;10.232;2023-07-29T05:46:28;4.15;;;2.13;;
38089;SDS011;23904;52.322;10.232;2023-07-29T05:48:54;5.60;;;2.50;;
38089;SDS011;23904;52.322;10.232;2023-07-29T05:51:19;4.38;;;2.17;;
38089;SDS011;23904;52.322;10.232;2023-07-29T05:53:45;3.38;;;2.28;;
38089;SDS011;23904;52.322;10.232;2023-07-29T05:56:10;2.95;;;2.25;;
38089;SDS011;23904;52.322;10.232;2023-07-29T05:58:36;3.03;;;2.33;;
38089;SDS011;23904;52.322;10.232;2023-07-29T06:01:02;2.50;;;2.30;;
38089;SDS011;23904;52.322;10.232;2023-07-29T06:03:27;2.92;;;2.35;;
38089;SDS011;23904;52.322;10.232;2023-07-29T06:05:53;3.70;;;2.35;;
38089;SDS011;23904;52.322;10.232;2023-07-29T06:08:19;4.55;;;2.40;;
38089;SDS011;23904;52.322;10.232;2023-07-29T06:10:45;5.20;;;2.50;;
38089;SDS011;23904;52.322;10.232;2023-07-29T06:13:10;4.55;;;2.60;;
38089;SDS011;23904;52.322;10.232;2023-07-29T06:15:36;2.92;;;2.33;;
38089;SDS011;23904;52.322;10.232;2023-07-29T06:18:01;6.80;;;2.40;;
38089;SDS011;23904;52.322;10.232;2023-07-29T06:20:27;4.88;;;2.65;;
38089;SDS011;23904;52.322;10.232;2023-07-29T06:22:53;3.28;;;2.65;;
38089;SDS011;23904;52.322;10.232;2023-07-29T06:25:19;3.45;;;2.65;;
38089;SDS011;23904;52.322;10.232;2023-07-29T06:27:44;3.20;;;2.53;;
38089;SDS011;23904;52.322;10.232;2023-07-29T06:30:10;6.13;;;2.70;;
38089;SDS011;23904;52.322;10.232;2023-07-29T06:32:36;3.45;;;2.60;;
38089;SDS011;23904;52.322;10.232;2023-07-29T06:35:01;4.30;;;2.80;;
38089;SDS011;23904;52.322;10.232;2023-07-29T06:37:27;4.80;;;2.40;;
38089;SDS011;23904;52.322;10.232;2023-07-29T06:39:53;4.88;;;2.75;;
38089;SDS011;23904;52.322;10.232;2023-07-29T06:42:18;2.60;;;2.38;;
38089;SDS011;23904;52.322;10.232;2023-07-29T06:44:44;3.25;;;2.85;;
38089;SDS011;23904;52.322;10.232;2023-07-29T06:47:10;4.05;;;2.90;;
38089;SDS011;23904;52.322;10.232;2023-07-29T06:49:36;5.28;;;2.85;;
38089;SDS011;23904;52.322;10.232;2023-07-29T06:52:02;3.88;;;2.47;;
38089;SDS011;23904;52.322;10.232;2023-07-29T06:54:28;4.43;;;2.63;;
38089;SDS011;23904;52.322;10.232;2023-07-29T06:56:54;5.80;;;3.38;;
38089;SDS011;23904;52.322;10.232;2023-07-29T06:59:19;3.97;;;2.55;;
38089;SDS011;23904;52.322;10.232;2023-07-29T07:01:45;4.38;;;2.45;;
38089;SDS011;23904;52.322;10.232;2023-07-29T07:04:11;4.82;;;2.70;;
38089;SDS011;23904;52.322;10.232;2023-07-29T07:09:55;5.05;;;2.20;;
38089;SDS011;23904;52.322;10.232;2023-07-29T07:12:21;5.78;;;2.88;;
38089;SDS011;23904;52.322;10.232;2023-07-29T07:14:47;7.13;;;2.70;;
38089;SDS011;23904;52.322;10.232;2023-07-29T07:17:13;2.60;;;1.80;;
38089;SDS011;23904;52.322;10.232;2023-07-29T07:19:38;3.05;;;1.70;;
38089;SDS011;23904;52.322;10.232;2023-07-29T07:22:04;2.65;;;1.65;;
38089;SDS011;23904;52.322;10.232;2023-07-29T07:24:30;2.17;;;1.50;;
38089;SDS011;23904;52.322;10.232;2023-07-29T07:26:56;3.28;;;1.35;;
38089;SDS011;23904;52.322;10.232;2023-07-29T07:29:21;2.78;;;1.58;;
38089;SDS011;23904;52.322;10.232;2023-07-29T07:31:50;2.95;;;1.70;;
38089;SDS011;23904;52.322;10.232;2023-07-29T07:34:18;2.72;;;1.70;;
38089;SDS011;23904;52.322;10.232;2023-07-29T07:36:47;2.22;;;1.58;;
38089;SDS011;23904;52.322;10.232;2023-07-29T07:39:14;3.15;;;1.67;;
38089;SDS011;23904;52.322;10.232;2023-07-29T07:41:40;6.28;;;1.25;;
38089;SDS011;23904;52.322;10.232;2023-07-29T07:44:06;3.00;;;1.70;;
38089;SDS011;23904;52.322;10.232;2023-07-29T07:46:32;2.90;;;1.70;;
38089;SDS011;23904;52.322;10.232;2023-07-29T07:48:58;3.45;;;1.27;;
38089;SDS011;23904;52.322;10.232;2023-07-29T07:51:23;2.50;;;1.20;;
38089;SDS011;23904;52.322;10.232;2023-07-29T07:53:49;3.47;;;1.55;;
38089;SDS011;23904;52.322;10.232;2023-07-29T07:56:15;2.13;;;1.30;;
38089;SDS011;23904;52.322;10.232;2023-07-29T07:58:41;3.03;;;1.40;;
38089;SDS011;23904;52.322;10.232;2023-07-29T08:01:07;2.70;;;1.38;;
38089;SDS011;23904;52.322;10.232;2023-07-29T08:03:34;2.75;;;1.40;;
38089;SDS011;23904;52.322;10.232;2023-07-29T08:06:00;4.45;;;1.40;;
38089;SDS011;23904;52.322;10.232;2023-07-29T08:08:27;3.53;;;1.70;;
38089;SDS011;23904;52.322;10.232;2023-07-29T08:10:53;3.50;;;1.70;;
38089;SDS011;23904;52.322;10.232;2023-07-29T08:13:19;3.22;;;1.58;;
38089;SDS011;23904;52.322;10.232;2023-07-29T08:15:47;1.92;;;1.23;;
38089;SDS011;23904;52.322;10.232;2023-07-29T08:18:13;2.42;;;1.20;;
38089;SDS011;23904;52.322;10.232;2023-07-29T08:20:39;1.58;;;1.20;;
38089;SDS011;23904;52.322;10.232;2023-07-29T08:23:05;3.53;;;1.40;;
38089;SDS011;23904;52.322;10.232;2023-07-29T08:25:30;3.90;;;1.20;;
38089;SDS011;23904;52.322;10.232;2023-07-29T08:27:56;2.70;;;1.13;;
38089;SDS011;23904;52.322;10.232;2023-07-29T08:30:21;2.63;;;1.00;;
38089;SDS011;23904;52.322;10.232;2023-07-29T08:32:47;1.20;;;0.70;;
38089;SDS011;23904;52.322;10.232;2023-07-29T08:35:13;3.03;;;0.65;;
38089;SDS011;23904;52.322;10.232;2023-07-29T08:37:38;2.15;;;0.82;;
38089;SDS011;23904;52.322;10.232;2023-07-29T08:40:04;2.10;;;0.77;;
38089;SDS011;23904;52.322;10.232;2023-07-29T08:42:31;1.95;;;1.00;;
38089;SDS011;23904;52.322;10.232;2023-07-29T08:44:58;1.42;;;0.70;;
38089;SDS011;23904;52.322;10.232;2023-07-29T08:47:32;1.83;;;0.57;;
38089;SDS011;23904;52.322;10.232;2023-07-29T08:49:58;2.33;;;0.82;;
38089;SDS011;23904;52.322;10.232;2023-07-29T08:52:26;1.30;;;0.70;;
38089;SDS011;23904;52.322;10.232;2023-07-29T08:54:54;1.98;;;0.85;;
38089;SDS011;23904;52.322;10.232;2023-07-29T08:57:20;1.38;;;0.77;;
38089;SDS011;23904;52.322;10.232;2023-07-29T08:59:47;1.00;;;0.70;;
38089;SDS011;23904;52.322;10.232;2023-07-29T09:02:12;5.13;;;1.80;;
38089;SDS011;23904;52.322;10.232;2023-07-29T09:04:38;2.22;;;1.00;;
38089;SDS011;23904;52.322;10.232;2023-07-29T09:07:04;10.18;;;2.33;;
38089;SDS011;23904;52.322;10.232;2023-07-29T09:09:31;3.13;;;0.98;;
38089;SDS011;23904;52.322;10.232;2023-07-29T09:11:57;1.33;;;0.80;;
38089;SDS011;23904;52.322;10.232;2023-07-29T09:14:23;1.10;;;0.98;;
38089;SDS011;23904;52.322;10.232;2023-07-29T09:16:49;2.63;;;1.88;;
38089;SDS011;23904;52.322;10.232;2023-07-29T09:19:15;2.72;;;1.50;;
38089;SDS011;23904;52.322;10.232;2023-07-29T09:21:41;3.72;;;1.80;;
38089;SDS011;23904;52.322;10.232;2023-07-29T09:24:12;4.97;;;2.25;;
38089;SDS011;23904;52.322;10.232;2023-07-29T09:26:48;2.47;;;1.92;;
38089;SDS011;23904;52.322;10.232;2023-07-29T09:29:15;2.03;;;1.83;;
38089;SDS011;23904;52.322;10.232;2023-07-29T09:31:47;2.97;;;1.80;;
38089;SDS011;23904;52.322;10.232;2023-07-29T09:34:12;2.30;;;1.70;;
38089;SDS011;23904;52.322;10.232;2023-07-29T09:36:42;3.33;;;2.42;;
38089;SDS011;23904;52.322;10.232;2023-07-29T09:39:10;3.08;;;2.22;;
38089;SDS011;23904;52.322;10.232;2023-07-29T09:41:38;3.05;;;2.25;;
38089;SDS011;23904;52.322;10.232;2023-07-29T09:44:03;3.83;;;2.50;;
38089;SDS011;23904;52.322;10.232;2023-07-29T09:46:34;2.47;;;1.83;;
38089;SDS011;23904;52.322;10.232;2023-07-29T09:49:03;2.88;;;2.22;;
38089;SDS011;23904;52.322;10.232;2023-07-29T09:51:30;3.65;;;2.25;;
38089;SDS011;23904;52.322;10.232;2023-07-29T09:53:56;5.07;;;1.90;;
38089;SDS011;23904;52.322;10.232;2023-07-29T09:56:24;3.55;;;2.30;;
38089;SDS011;23904;52.322;10.232;2023-07-29T09:58:51;2.45;;;2.00;;
38089;SDS011;23904;52.322;10.232;2023-07-29T10:01:17;2.55;;;2.20;;
38089;SDS011;23904;52.322;10.232;2023-07-29T10:03:44;3.53;;;2.40;;
38089;SDS011;23904;52.322;10.232;2023-07-29T10:06:10;2.13;;;1.90;;
38089;SDS011;23904;52.322;10.232;2023-07-29T10:08:36;4.18;;;2.53;;
38089;SDS011;23904;52.322;10.232;2023-07-29T10:11:05;2.58;;;2.25;;
38089;SDS011;23904;52.322;10.232;2023-07-29T10:13:32;2.20;;;1.95;;
38089;SDS011;23904;52.322;10.232;2023-07-29T10:15:59;3.65;;;2.15;;
38089;SDS011;23904;52.322;10.232;2023-07-29T10:18:27;3.30;;;2.33;;
38089;SDS011;23904;52.322;10.232;2023-07-29T10:20:54;3.60;;;2.80;;
38089;SDS011;23904;52.322;10.232;2023-07-29T10:23:22;2.75;;;2.22;;
38089;SDS011;23904;52.322;10.232;2023-07-29T10:26:10;5.10;;;2.90;;
38089;SDS011;23904;52.322;10.232;2023-07-29T10:28:38;2.83;;;2.42;;
38089;SDS011;23904;52.322;10.232;2023-07-29T10:31:06;3.92;;;3.33;;
38089;SDS011;23904;52.322;10.232;2023-07-29T10:33:32;4.43;;;3.67;;
38089;SDS011;23904;52.322;10.232;2023-07-29T10:35:59;3.75;;;3.45;;
38089;SDS011;23904;52.322;10.232;2023-07-29T10:38:25;4.03;;;3.42;;
38089;SDS011;23904;52.322;10.232;2023-07-29T10:40:52;3.85;;;3.28;;
38089;SDS011;23904;52.322;10.232;2023-07-29T10:43:28;5.75;;;4.18;;
38089;SDS011;23904;52.322;10.232;2023-07-29T10:45:57;4.50;;;4.10;;
38089;SDS011;23904;52.322;10.232;2023-07-29T10:48:42;6.00;;;4.68;;
38089;SDS011;23904;52.322;10.232;2023-07-29T10:51:23;6.38;;;5.07;;
38089;SDS011;23904;52.322;10.232;2023-07-29T10:54:12;6.97;;;5.35;;
38089;SDS011;23904;52.322;10.232;2023-07-29T10:56:43;7.18;;;6.43;;
38089;SDS011;23904;52.322;10.232;2023-07-29T11:01:42;7.13;;;6.45;;
38089;SDS011;23904;52.322;10.232;2023-07-29T11:17:35;7.57;;;6.78;;
38089;SDS011;23904;52.322;10.232;2023-07-29T11:20:18;6.53;;;5.80;;
38089;SDS011;23904;52.322;10.232;2023-07-29T11:22:48;6.18;;;5.65;;
38089;SDS011;23904;52.322;10.232;2023-07-29T11:25:15;5.78;;;5.18;;
38089;SDS011;23904;52.322;10.232;2023-07-29T11:27:42;5.45;;;4.80;;
38089;SDS011;23904;52.322;10.232;2023-07-29T11:30:09;5.60;;;4.85;;
38089;SDS011;23904;52.322;10.232;2023-07-29T11:32:38;5.25;;;4.65;;
38089;SDS011;23904;52.322;10.232;2023-07-29T11:35:17;5.32;;;4.38;;
38089;SDS011;23904;52.322;10.232;2023-07-29T11:37:45;4.93;;;4.43;;
38089;SDS011;23904;52.322;10.232;2023-07-29T11:40:19;5.38;;;3.80;;
38089;SDS011;23904;52.322;10.232;2023-07-29T11:42:46;4.53;;;3.85;;
38089;SDS011;23904;52.322;10.232;2023-07-29T11:45:15;5.43;;;3.67;;
38089;SDS011;23904;52.322;10.232;2023-07-29T11:47:41;5.80;;;4.18;;
38089;SDS011;23904;52.322;10.232;2023-07-29T11:50:08;6.57;;;3.92;;
38089;SDS011;23904;52.322;10.232;2023-07-29T11:52:36;4.25;;;3.67;;
38089;SDS011;23904;52.322;10.232;2023-07-29T11:55:03;6.25;;;3.70;;
38089;SDS011;23904;52.322;10.232;2023-07-29T11:57:30;6.57;;;3.65;;
38089;SDS011;23904;52.322;10.232;2023-07-29T11:59:58;5.35;;;3.35;;
38089;SDS011;23904;52.322;10.232;2023-07-29T12:02:24;3.80;;;3.38;;
38089;SDS011;23904;52.322;10.232;2023-07-29T12:04:51;4.80;;;2.95;;
38089;SDS011;23904;52.322;10.232;2023-07-29T12:07:18;5.60;;;3.33;;
38089;SDS011;23904;52.322;10.232;2023-07-29T12:09:44;6.28;;;2.97;;
38089;SDS011;23904;52.322;10.232;2023-07-29T12:12:11;5.00;;;3.60;;
38089;SDS011;23904;52.322;10.232;2023-07-29T12:14:37;3.55;;;2.92;;
38089;SDS011;23904;52.322;10.232;2023-07-29T12:17:03;3.70;;;3.00;;
38089;SDS011;23904;52.322;10.232;2023-07-29T12:19:34;3.53;;;3.00;;
38089;SDS011;23904;52.322;10.232;2023-07-29T12:22:03;6.05;;;2.60;;
38089;SDS011;23904;52.322;10.232;2023-07-29T12:24:31;5.93;;;2.45;;
38089;SDS011;23904;52.322;10.232;2023-07-29T12:26:58;4.20;;;2.50;;
38089;SDS011;23904;52.322;10.232;2023-07-29T12:29:25;3.75;;;2.45;;
38089;SDS011;23904;52.322;10.232;2023-07-29T12:32:01;3.53;;;2.10;;
38089;SDS011;23904;52.322;10.232;2023-07-29T12:34:28;2.67;;;1.67;;
38089;SDS011;23904;52.322;10.232;2023-07-29T12:36:56;3.92;;;1.40;;
38089;SDS011;23904;52.322;10.232;2023-07-29T12:39:28;2.97;;;2.03;;
38089;SDS011;23904;52.322;10.232;2023-07-29T12:41:56;2.25;;;1.20;;
38089;SDS011;23904;52.322;10.232;2023-07-29T12:44:23;1.75;;;1.30;;
38089;SDS011;23904;52.322;10.232;2023-07-29T12:46:50;1.80;;;1.10;;
38089;SDS011;23904;52.322;10.232;2023-07-29T12:49:17;3.78;;;1.20;;
38089;SDS011;23904;52.322;10.232;2023-07-29T12:51:43;2.25;;;1.10;;
38089;SDS011;23904;52.322;10.232;2023-07-29T12:54:08;4.38;;;1.30;;
38089;SDS011;23904;52.322;10.232;2023-07-29T12:56:34;1.40;;;1.10;;
38089;SDS011;23904;52.322;10.232;2023-07-29T12:59:00;3.72;;;1.00;;
38089;SDS011;23904;52.322;10.232;2023-07-29T13:01:27;1.75;;;0.90;;
38089;SDS011;23904;52.322;10.232;2023-07-29T13:03:54;6.30;;;1.15;;
38089;SDS011;23904;52.322;10.232;2023-07-29T13:06:20;1.88;;;1.10;;
38089;SDS011;23904;52.322;10.232;2023-07-29T13:08:47;2.33;;;1.20;;
38089;SDS011;23904;52.322;10.232;2023-07-29T13:11:13;1.70;;;1.02;;
38089;SDS011;23904;52.322;10.232;2023-07-29T13:13:39;1.60;;;1.08;;
38089;SDS011;23904;52.322;10.232;2023-07-29T13:16:05;2.15;;;1.10;;
38089;SDS011;23904;52.322;10.232;2023-07-29T13:18:31;1.90;;;1.13;;
38089;SDS011;23904;52.322;10.232;2023-07-29T13:20:57;2.65;;;1.17;;
38089;SDS011;23904;52.322;10.232;2023-07-29T13:23:23;3.38;;;1.13;;
38089;SDS011;23904;52.322;10.232;2023-07-29T13:25:49;2.03;;;1.40;;
38089;SDS011;23904;52.322;10.232;2023-07-29T13:28:15;1.90;;;1.00;;
38089;SDS011;23904;52.322;10.232;2023-07-29T13:30:41;1.92;;;1.15;;
38089;SDS011;23904;52.322;10.232;2023-07-29T13:33:07;2.28;;;1.20;;
38089;SDS011;23904;52.322;10.232;2023-07-29T13:35:33;4.25;;;1.08;;
38089;SDS011;23904;52.322;10.232;2023-07-29T13:37:59;1.80;;;0.93;;
38089;SDS011;23904;52.322;10.232;2023-07-29T13:40:25;2.13;;;1.20;;
38089;SDS011;23904;52.322;10.232;2023-07-29T13:42:51;3.22;;;1.55;;
38089;SDS011;23904;52.322;10.232;2023-07-29T13:45:17;2.53;;;1.17;;
38089;SDS011;23904;52.322;10.232;2023-07-29T13:47:43;3.88;;;1.50;;
38089;SDS011;23904;52.322;10.232;2023-07-29T13:50:09;2.17;;;1.10;;
38089;SDS011;23904;52.322;10.232;2023-07-29T13:52:35;1.98;;;1.27;;
38089;SDS011;23904;52.322;10.232;2023-07-29T13:55:02;1.98;;;1.20;;
38089;SDS011;23904;52.322;10.232;2023-07-29T13:57:31;2.15;;;1.08;;
38089;SDS011;23904;52.322;10.232;2023-07-29T13:59:57;1.65;;;1.05;;
38089;SDS011;23904;52.322;10.232;2023-07-29T14:02:23;2.97;;;1.20;;
38089;SDS011;23904;52.322;10.232;2023-07-29T14:04:51;1.20;;;1.10;;
38089;SDS011;23904;52.322;10.232;2023-07-29T14:07:17;1.58;;;1.15;;
38089;SDS011;23904;52.322;10.232;2023-07-29T14:09:43;1.15;;;0.70;;
38089;SDS011;23904;52.322;10.232;2023-07-29T14:12:09;1.67;;;1.00;;
38089;SDS011;23904;52.322;10.232;2023-07-29T14:14:39;2.35;;;1.20;;
38089;SDS011;23904;52.322;10.232;2023-07-29T14:17:05;1.70;;;1.10;;
38089;SDS011;23904;52.322;10.232;2023-07-29T14:19:32;1.67;;;1.15;;
38089;SDS011;23904;52.322;10.232;2023-07-29T14:21:57;1.20;;;0.95;;
38089;SDS011;23904;52.322;10.232;2023-07-29T14:24:23;2.67;;;1.00;;
38089;SDS011;23904;52.322;10.232;2023-07-29T14:26:49;1.83;;;1.00;;
38089;SDS011;23904;52.322;10.232;2023-07-29T14:29:14;1.52;;;0.90;;
38089;SDS011;23904;52.322;10.232;2023-07-29T14:31:40;3.75;;;1.35;;
38089;SDS011;23904;52.322;10.232;2023-07-29T14:34:06;1.35;;;0.90;;
38089;SDS011;23904;52.322;10.232;2023-07-29T14:36:31;1.73;;;1.00;;
38089;SDS011;23904;52.322;10.232;2023-07-29T14:38:57;1.92;;;0.93;;
38089;SDS011;23904;52.322;10.232;2023-07-29T14:41:22;2.03;;;1.15;;
38089;SDS011;23904;52.322;10.232;2023-07-29T14:43:48;1.45;;;0.90;;
38089;SDS011;23904;52.322;10.232;2023-07-29T14:46:13;3.35;;;1.20;;
38089;SDS011;23904;52.322;10.232;2023-07-29T14:48:39;1.55;;;1.05;;
38089;SDS011;23904;52.322;10.232;2023-07-29T14:51:04;1.27;;;0.88;;
38089;SDS011;23904;52.322;10.232;2023-07-29T14:53:30;1.40;;;0.70;;
38089;SDS011;23904;52.322;10.232;2023-07-29T14:55:55;1.00;;;0.90;;